Terminal Aerodrome Forecast
Issued by NWS

Home | Current Version | Previous Version | Text Only | Print | Product List | Glossary On
Versions: 1 2 3 4 5 6 7 8 9 10 11 12 13 14 15 16 17 18 19 20 21
000
FTUS44 KBMX 301224 AAA
TAFTCL
TAF AMD
KTCL 301224Z 3012/0112 20008KT 6SM SHRA VCTS SCT015 BKN030CB
      TEMPO 3012/3013 2SM TSRA BKN015CB
     FM301500 25010G18KT P6SM VCTS BKN050CB
     FM302000 25012G18KT P6SM SCT060 BKN250
     FM010300 23005KT P6SM SCT250=

USA.gov is the U.S. government's official web portal to all federal, state and local government web resources and services.